マニラ/ニノイ・アキノ の空港の天気 - METARとTAF

ニノイ・アキノ国際空港 ( RPLL / MNL ) - フィリピン マニラ
飛行場実況気象(Metar)
観測時間08/05 06:00 PHT (08/04 22:00 UTC)
風向・風速不定 1m/s
視程10km以上
天気現象
全天の8割程度の雲 雲底高度 6100m
気温27℃
湿度89%
気圧1007hPa
METARRPLL 042200Z AUTO VRB02KT 9999 BKN200/// 27/25 Q1007
過去の天気等 Google飛行場航空写真 Wunderground天気予報

過去48時間のMETAR

飛行場予報(TAF)
発表時間: 8/05 01:00 PHT (8/04 17:00 UTC)
予報対象時間: 5日2時 PHT ~ 6日8時 PHT
風向・風速東 2m/s
視程10km以上
少しの雲 雲底高度 730m
全天の4割程度の雲 雲底高度 3050m
全天の8割程度の雲 雲底高度 9140m
5日2時 PHT ~ 5日8時 PHT に一時的に
風向・風速東南東 5m/s
天気現象
少しの積乱雲 雲底高度 670m
少しの雲 雲底高度 700m
全天の4割程度の雲 雲底高度 2740m
5日8時 PHT ~ 5日14時 PHT に一時的に
風向・風速東南東 4m/s
視程9000m
天気現象弱い雷雨
少しの積乱雲 雲底高度 670m
全天の4割程度の雲 雲底高度 700m
全天の8割程度の雲 雲底高度 3050m
TAF RPLL 041700Z 0418/0524 09004KT 9999 FEW024 SCT100 BKN300 TX34/0506Z TN26/0421Z
TEMPO 0418/0424 11010KT TS FEW022CB FEW023 SCT090
TEMPO 0500/0506 12008KT 9000 -TSRA FEW022CB SCT023 BKN100